sensor_id;sensor_type;location;lat;lon;timestamp;P1;durP1;ratioP1;P2;durP2;ratioP2
45842;SDS011;31563;51.744;8.252;2024-02-14T00:01:04;1.60;;;0.98;;
45842;SDS011;31563;51.744;8.252;2024-02-14T00:03:35;2.13;;;1.00;;
45842;SDS011;31563;51.744;8.252;2024-02-14T00:06:05;3.22;;;1.00;;
45842;SDS011;31563;51.744;8.252;2024-02-14T00:08:33;1.45;;;0.82;;
45842;SDS011;31563;51.744;8.252;2024-02-14T00:11:01;1.23;;;0.77;;
45842;SDS011;31563;51.744;8.252;2024-02-14T00:13:30;1.52;;;1.08;;
45842;SDS011;31563;51.744;8.252;2024-02-14T00:16:01;2.00;;;1.00;;
45842;SDS011;31563;51.744;8.252;2024-02-14T00:18:31;2.15;;;1.00;;
45842;SDS011;31563;51.744;8.252;2024-02-14T00:20:59;2.05;;;1.13;;
45842;SDS011;31563;51.744;8.252;2024-02-14T00:23:27;1.35;;;0.80;;
45842;SDS011;31563;51.744;8.252;2024-02-14T00:25:55;1.83;;;1.10;;
45842;SDS011;31563;51.744;8.252;2024-02-14T00:28:23;1.52;;;0.82;;
45842;SDS011;31563;51.744;8.252;2024-02-14T00:30:53;1.60;;;0.80;;
45842;SDS011;31563;51.744;8.252;2024-02-14T00:33:21;2.17;;;1.00;;
45842;SDS011;31563;51.744;8.252;2024-02-14T00:35:51;1.85;;;1.10;;
45842;SDS011;31563;51.744;8.252;2024-02-14T00:38:19;2.05;;;1.10;;
45842;SDS011;31563;51.744;8.252;2024-02-14T00:40:47;2.10;;;0.95;;
45842;SDS011;31563;51.744;8.252;2024-02-14T00:43:15;2.10;;;1.08;;
45842;SDS011;31563;51.744;8.252;2024-02-14T00:45:43;1.35;;;0.90;;
45842;SDS011;31563;51.744;8.252;2024-02-14T00:48:12;2.95;;;1.20;;
45842;SDS011;31563;51.744;8.252;2024-02-14T00:50:40;4.72;;;1.17;;
45842;SDS011;31563;51.744;8.252;2024-02-14T00:53:10;1.83;;;0.80;;
45842;SDS011;31563;51.744;8.252;2024-02-14T00:55:38;1.75;;;1.17;;
45842;SDS011;31563;51.744;8.252;2024-02-14T00:58:06;1.42;;;1.02;;
45842;SDS011;31563;51.744;8.252;2024-02-14T01:00:34;1.65;;;1.20;;
45842;SDS011;31563;51.744;8.252;2024-02-14T01:03:02;0.95;;;0.70;;
45842;SDS011;31563;51.744;8.252;2024-02-14T01:05:31;1.40;;;0.93;;
45842;SDS011;31563;51.744;8.252;2024-02-14T01:07:59;1.85;;;0.90;;
45842;SDS011;31563;51.744;8.252;2024-02-14T01:10:28;1.67;;;1.00;;
45842;SDS011;31563;51.744;8.252;2024-02-14T01:12:57;1.95;;;0.98;;
45842;SDS011;31563;51.744;8.252;2024-02-14T01:15:25;1.70;;;1.02;;
45842;SDS011;31563;51.744;8.252;2024-02-14T01:17:53;1.23;;;0.90;;
45842;SDS011;31563;51.744;8.252;2024-02-14T01:20:21;1.73;;;1.00;;
45842;SDS011;31563;51.744;8.252;2024-02-14T01:22:49;1.52;;;1.00;;
45842;SDS011;31563;51.744;8.252;2024-02-14T01:25:17;1.40;;;1.00;;
45842;SDS011;31563;51.744;8.252;2024-02-14T01:27:47;1.85;;;1.00;;
45842;SDS011;31563;51.744;8.252;2024-02-14T01:30:15;2.08;;;0.98;;
45842;SDS011;31563;51.744;8.252;2024-02-14T01:32:44;0.90;;;0.70;;
45842;SDS011;31563;51.744;8.252;2024-02-14T01:35:13;1.77;;;1.00;;
45842;SDS011;31563;51.744;8.252;2024-02-14T01:37:41;2.47;;;1.00;;
45842;SDS011;31563;51.744;8.252;2024-02-14T01:42:39;1.67;;;0.80;;
45842;SDS011;31563;51.744;8.252;2024-02-14T01:45:09;1.42;;;0.93;;
45842;SDS011;31563;51.744;8.252;2024-02-14T01:47:38;2.35;;;1.27;;
45842;SDS011;31563;51.744;8.252;2024-02-14T01:50:08;2.53;;;1.00;;
45842;SDS011;31563;51.744;8.252;2024-02-14T01:52:38;2.47;;;1.15;;
45842;SDS011;31563;51.744;8.252;2024-02-14T01:55:07;2.58;;;1.15;;
45842;SDS011;31563;51.744;8.252;2024-02-14T01:57:36;2.17;;;0.82;;
45842;SDS011;31563;51.744;8.252;2024-02-14T02:00:06;2.03;;;0.98;;
45842;SDS011;31563;51.744;8.252;2024-02-14T02:02:36;1.70;;;1.00;;
45842;SDS011;31563;51.744;8.252;2024-02-14T02:05:06;1.65;;;0.77;;
45842;SDS011;31563;51.744;8.252;2024-02-14T02:07:34;2.58;;;0.80;;
45842;SDS011;31563;51.744;8.252;2024-02-14T02:10:05;1.33;;;0.93;;
45842;SDS011;31563;51.744;8.252;2024-02-14T02:12:35;1.88;;;0.70;;
45842;SDS011;31563;51.744;8.252;2024-02-14T02:15:05;1.75;;;0.82;;
45842;SDS011;31563;51.744;8.252;2024-02-14T02:17:38;2.67;;;0.98;;
45842;SDS011;31563;51.744;8.252;2024-02-14T02:20:07;2.63;;;1.00;;
45842;SDS011;31563;51.744;8.252;2024-02-14T02:22:36;2.03;;;1.00;;
45842;SDS011;31563;51.744;8.252;2024-02-14T02:25:06;3.15;;;1.17;;
45842;SDS011;31563;51.744;8.252;2024-02-14T02:27:34;1.98;;;0.60;;
45842;SDS011;31563;51.744;8.252;2024-02-14T02:30:04;1.20;;;0.70;;
45842;SDS011;31563;51.744;8.252;2024-02-14T02:32:34;0.85;;;0.70;;
45842;SDS011;31563;51.744;8.252;2024-02-14T02:35:03;1.75;;;0.73;;
45842;SDS011;31563;51.744;8.252;2024-02-14T02:37:32;1.60;;;1.00;;
45842;SDS011;31563;51.744;8.252;2024-02-14T02:40:00;2.72;;;0.90;;
45842;SDS011;31563;51.744;8.252;2024-02-14T02:42:30;1.50;;;0.68;;
45842;SDS011;31563;51.744;8.252;2024-02-14T02:44:58;3.10;;;1.27;;
45842;SDS011;31563;51.744;8.252;2024-02-14T02:47:28;1.38;;;0.70;;
45842;SDS011;31563;51.744;8.252;2024-02-14T02:49:56;2.58;;;0.90;;
45842;SDS011;31563;51.744;8.252;2024-02-14T02:52:28;1.63;;;0.80;;
45842;SDS011;31563;51.744;8.252;2024-02-14T02:54:57;1.20;;;0.70;;
45842;SDS011;31563;51.744;8.252;2024-02-14T02:57:26;1.40;;;0.85;;
45842;SDS011;31563;51.744;8.252;2024-02-14T02:59:56;1.25;;;0.80;;
45842;SDS011;31563;51.744;8.252;2024-02-14T03:02:24;1.88;;;0.70;;
45842;SDS011;31563;51.744;8.252;2024-02-14T03:04:53;1.00;;;0.55;;
45842;SDS011;31563;51.744;8.252;2024-02-14T03:07:21;1.90;;;0.70;;
45842;SDS011;31563;51.744;8.252;2024-02-14T03:09:49;0.85;;;0.60;;
45842;SDS011;31563;51.744;8.252;2024-02-14T03:12:18;1.33;;;0.77;;
45842;SDS011;31563;51.744;8.252;2024-02-14T03:14:46;2.05;;;0.60;;
45842;SDS011;31563;51.744;8.252;2024-02-14T03:17:17;1.67;;;0.85;;
45842;SDS011;31563;51.744;8.252;2024-02-14T03:19:45;1.15;;;0.70;;
45842;SDS011;31563;51.744;8.252;2024-02-14T03:22:14;1.58;;;0.82;;
45842;SDS011;31563;51.744;8.252;2024-02-14T03:24:45;1.35;;;0.60;;
45842;SDS011;31563;51.744;8.252;2024-02-14T03:27:13;1.17;;;0.80;;
45842;SDS011;31563;51.744;8.252;2024-02-14T03:32:11;1.45;;;0.70;;
45842;SDS011;31563;51.744;8.252;2024-02-14T03:34:41;1.35;;;0.77;;
45842;SDS011;31563;51.744;8.252;2024-02-14T03:37:10;1.60;;;0.88;;
45842;SDS011;31563;51.744;8.252;2024-02-14T03:39:38;1.30;;;0.70;;
45842;SDS011;31563;51.744;8.252;2024-02-14T03:42:06;1.70;;;0.73;;
45842;SDS011;31563;51.744;8.252;2024-02-14T03:44:34;1.55;;;0.70;;
45842;SDS011;31563;51.744;8.252;2024-02-14T03:47:04;1.75;;;0.73;;
45842;SDS011;31563;51.744;8.252;2024-02-14T03:49:32;1.25;;;0.80;;
45842;SDS011;31563;51.744;8.252;2024-02-14T03:52:02;1.08;;;0.70;;
45842;SDS011;31563;51.744;8.252;2024-02-14T03:54:35;1.35;;;0.60;;
45842;SDS011;31563;51.744;8.252;2024-02-14T03:57:04;1.58;;;0.60;;
45842;SDS011;31563;51.744;8.252;2024-02-14T03:59:37;1.00;;;0.70;;
45842;SDS011;31563;51.744;8.252;2024-02-14T04:02:06;1.10;;;0.70;;
45842;SDS011;31563;51.744;8.252;2024-02-14T04:04:36;1.00;;;0.60;;
45842;SDS011;31563;51.744;8.252;2024-02-14T04:07:06;0.60;;;0.40;;
45842;SDS011;31563;51.744;8.252;2024-02-14T04:09:35;1.17;;;0.68;;
45842;SDS011;31563;51.744;8.252;2024-02-14T04:12:04;1.15;;;0.70;;
45842;SDS011;31563;51.744;8.252;2024-02-14T04:14:33;1.83;;;0.87;;
45842;SDS011;31563;51.744;8.252;2024-02-14T04:17:01;1.15;;;0.70;;
45842;SDS011;31563;51.744;8.252;2024-02-14T04:19:29;1.52;;;0.60;;
45842;SDS011;31563;51.744;8.252;2024-02-14T04:21:58;1.58;;;0.60;;
45842;SDS011;31563;51.744;8.252;2024-02-14T04:24:27;0.90;;;0.77;;
45842;SDS011;31563;51.744;8.252;2024-02-14T04:26:55;1.00;;;0.73;;
45842;SDS011;31563;51.744;8.252;2024-02-14T04:29:24;1.30;;;0.77;;
45842;SDS011;31563;51.744;8.252;2024-02-14T04:31:54;0.77;;;0.68;;
45842;SDS011;31563;51.744;8.252;2024-02-14T04:34:22;1.27;;;0.90;;
45842;SDS011;31563;51.744;8.252;2024-02-14T04:36:51;0.63;;;0.55;;
45842;SDS011;31563;51.744;8.252;2024-02-14T04:39:19;1.05;;;0.70;;
45842;SDS011;31563;51.744;8.252;2024-02-14T04:41:49;0.73;;;0.70;;
45842;SDS011;31563;51.744;8.252;2024-02-14T04:44:27;0.70;;;0.50;;
45842;SDS011;31563;51.744;8.252;2024-02-14T04:46:55;1.00;;;0.60;;
45842;SDS011;31563;51.744;8.252;2024-02-14T04:49:24;0.63;;;0.40;;
45842;SDS011;31563;51.744;8.252;2024-02-14T04:51:53;1.25;;;0.70;;
45842;SDS011;31563;51.744;8.252;2024-02-14T04:54:22;1.40;;;0.90;;
45842;SDS011;31563;51.744;8.252;2024-02-14T04:56:51;1.15;;;0.70;;
45842;SDS011;31563;51.744;8.252;2024-02-14T04:59:24;2.17;;;1.17;;
45842;SDS011;31563;51.744;8.252;2024-02-14T05:01:52;1.13;;;0.73;;
45842;SDS011;31563;51.744;8.252;2024-02-14T05:04:21;1.20;;;0.75;;
45842;SDS011;31563;51.744;8.252;2024-02-14T05:06:49;1.65;;;0.60;;
45842;SDS011;31563;51.744;8.252;2024-02-14T05:09:22;1.58;;;0.75;;
45842;SDS011;31563;51.744;8.252;2024-02-14T05:11:52;2.00;;;1.00;;
45842;SDS011;31563;51.744;8.252;2024-02-14T05:14:20;1.08;;;0.68;;
45842;SDS011;31563;51.744;8.252;2024-02-14T05:16:48;1.20;;;0.82;;
45842;SDS011;31563;51.744;8.252;2024-02-14T05:19:16;1.52;;;0.50;;
45842;SDS011;31563;51.744;8.252;2024-02-14T05:21:45;1.42;;;0.60;;
45842;SDS011;31563;51.744;8.252;2024-02-14T05:24:13;0.73;;;0.50;;
45842;SDS011;31563;51.744;8.252;2024-02-14T05:26:42;1.10;;;0.40;;
45842;SDS011;31563;51.744;8.252;2024-02-14T05:29:11;2.63;;;0.60;;
45842;SDS011;31563;51.744;8.252;2024-02-14T05:31:43;1.95;;;0.75;;
45842;SDS011;31563;51.744;8.252;2024-02-14T05:34:12;1.10;;;0.60;;
45842;SDS011;31563;51.744;8.252;2024-02-14T05:36:40;1.95;;;0.50;;
45842;SDS011;31563;51.744;8.252;2024-02-14T05:39:12;1.27;;;0.80;;
45842;SDS011;31563;51.744;8.252;2024-02-14T05:41:42;0.98;;;0.65;;
45842;SDS011;31563;51.744;8.252;2024-02-14T05:44:11;1.40;;;0.70;;
45842;SDS011;31563;51.744;8.252;2024-02-14T05:46:39;0.85;;;0.50;;
45842;SDS011;31563;51.744;8.252;2024-02-14T05:49:08;2.28;;;0.50;;
45842;SDS011;31563;51.744;8.252;2024-02-14T05:51:36;0.73;;;0.50;;
45842;SDS011;31563;51.744;8.252;2024-02-14T05:54:04;3.83;;;0.70;;
45842;SDS011;31563;51.744;8.252;2024-02-14T05:56:33;1.83;;;0.70;;
45842;SDS011;31563;51.744;8.252;2024-02-14T05:59:01;0.98;;;0.60;;
45842;SDS011;31563;51.744;8.252;2024-02-14T06:01:30;1.33;;;0.50;;
45842;SDS011;31563;51.744;8.252;2024-02-14T06:03:59;0.90;;;0.50;;
45842;SDS011;31563;51.744;8.252;2024-02-14T06:06:27;1.88;;;0.55;;
45842;SDS011;31563;51.744;8.252;2024-02-14T06:08:55;2.40;;;1.00;;
45842;SDS011;31563;51.744;8.252;2024-02-14T06:11:24;3.00;;;0.95;;
45842;SDS011;31563;51.744;8.252;2024-02-14T06:13:52;3.63;;;1.23;;
45842;SDS011;31563;51.744;8.252;2024-02-14T06:16:21;3.25;;;1.05;;
45842;SDS011;31563;51.744;8.252;2024-02-14T06:18:50;2.60;;;0.93;;
45842;SDS011;31563;51.744;8.252;2024-02-14T06:21:20;1.50;;;0.60;;
45842;SDS011;31563;51.744;8.252;2024-02-14T06:23:48;3.25;;;0.90;;
45842;SDS011;31563;51.744;8.252;2024-02-14T06:26:16;2.72;;;0.82;;
45842;SDS011;31563;51.744;8.252;2024-02-14T06:28:44;1.75;;;0.90;;
45842;SDS011;31563;51.744;8.252;2024-02-14T06:31:12;1.65;;;0.80;;
45842;SDS011;31563;51.744;8.252;2024-02-14T06:33:40;1.73;;;0.80;;
45842;SDS011;31563;51.744;8.252;2024-02-14T06:36:11;1.42;;;0.93;;
45842;SDS011;31563;51.744;8.252;2024-02-14T06:38:40;1.85;;;0.90;;
45842;SDS011;31563;51.744;8.252;2024-02-14T06:41:08;2.05;;;1.00;;
45842;SDS011;31563;51.744;8.252;2024-02-14T06:43:36;1.50;;;0.80;;
45842;SDS011;31563;51.744;8.252;2024-02-14T06:46:05;2.53;;;1.00;;
45842;SDS011;31563;51.744;8.252;2024-02-14T06:48:33;1.20;;;0.70;;
45842;SDS011;31563;51.744;8.252;2024-02-14T06:51:02;1.75;;;0.90;;
45842;SDS011;31563;51.744;8.252;2024-02-14T06:53:32;1.45;;;0.60;;
45842;SDS011;31563;51.744;8.252;2024-02-14T06:58:28;0.70;;;0.60;;
45842;SDS011;31563;51.744;8.252;2024-02-14T07:00:57;1.45;;;0.75;;
45842;SDS011;31563;51.744;8.252;2024-02-14T07:03:26;2.85;;;1.48;;
45842;SDS011;31563;51.744;8.252;2024-02-14T07:05:54;1.65;;;1.00;;
45842;SDS011;31563;51.744;8.252;2024-02-14T07:08:22;1.77;;;1.05;;
45842;SDS011;31563;51.744;8.252;2024-02-14T07:10:54;2.80;;;0.98;;
45842;SDS011;31563;51.744;8.252;2024-02-14T07:15:50;4.25;;;1.35;;
45842;SDS011;31563;51.744;8.252;2024-02-14T07:18:18;2.88;;;1.40;;
45842;SDS011;31563;51.744;8.252;2024-02-14T07:20:47;2.85;;;1.10;;
45842;SDS011;31563;51.744;8.252;2024-02-14T07:23:15;8.23;;;1.00;;
45842;SDS011;31563;51.744;8.252;2024-02-14T07:25:43;2.95;;;1.05;;
45842;SDS011;31563;51.744;8.252;2024-02-14T07:28:13;3.35;;;1.20;;
45842;SDS011;31563;51.744;8.252;2024-02-14T07:30:41;1.52;;;0.70;;
45842;SDS011;31563;51.744;8.252;2024-02-14T07:33:10;1.83;;;0.80;;
45842;SDS011;31563;51.744;8.252;2024-02-14T07:35:39;3.25;;;0.90;;
45842;SDS011;31563;51.744;8.252;2024-02-14T07:38:07;4.97;;;1.50;;
45842;SDS011;31563;51.744;8.252;2024-02-14T07:40:35;3.42;;;0.90;;
45842;SDS011;31563;51.744;8.252;2024-02-14T07:43:05;2.70;;;1.27;;
45842;SDS011;31563;51.744;8.252;2024-02-14T07:45:35;3.35;;;1.63;;
45842;SDS011;31563;51.744;8.252;2024-02-14T07:48:02;2.50;;;1.00;;
45842;SDS011;31563;51.744;8.252;2024-02-14T07:50:31;3.35;;;1.05;;
45842;SDS011;31563;51.744;8.252;2024-02-14T07:52:59;2.70;;;0.80;;
45842;SDS011;31563;51.744;8.252;2024-02-14T07:55:27;2.15;;;1.13;;
45842;SDS011;31563;51.744;8.252;2024-02-14T07:57:55;1.50;;;0.82;;
45842;SDS011;31563;51.744;8.252;2024-02-14T08:00:23;2.17;;;1.13;;
45842;SDS011;31563;51.744;8.252;2024-02-14T08:02:53;2.85;;;1.02;;
45842;SDS011;31563;51.744;8.252;2024-02-14T08:05:21;2.50;;;0.90;;
45842;SDS011;31563;51.744;8.252;2024-02-14T08:07:49;1.50;;;0.80;;
45842;SDS011;31563;51.744;8.252;2024-02-14T08:10:17;2.15;;;0.90;;
45842;SDS011;31563;51.744;8.252;2024-02-14T08:12:46;0.82;;;0.47;;
45842;SDS011;31563;51.744;8.252;2024-02-14T08:15:14;2.55;;;0.95;;
45842;SDS011;31563;51.744;8.252;2024-02-14T08:17:43;1.30;;;0.60;;
45842;SDS011;31563;51.744;8.252;2024-02-14T08:20:14;3.50;;;0.70;;
45842;SDS011;31563;51.744;8.252;2024-02-14T08:22:42;1.83;;;0.60;;
45842;SDS011;31563;51.744;8.252;2024-02-14T08:25:10;1.88;;;0.80;;
45842;SDS011;31563;51.744;8.252;2024-02-14T08:27:39;1.67;;;0.55;;
45842;SDS011;31563;51.744;8.252;2024-02-14T08:30:07;1.33;;;0.70;;
45842;SDS011;31563;51.744;8.252;2024-02-14T08:32:35;2.10;;;0.50;;
45842;SDS011;31563;51.744;8.252;2024-02-14T08:35:04;1.17;;;0.63;;
45842;SDS011;31563;51.744;8.252;2024-02-14T08:37:35;3.83;;;1.00;;
45842;SDS011;31563;51.744;8.252;2024-02-14T08:40:05;1.85;;;0.57;;
45842;SDS011;31563;51.744;8.252;2024-02-14T08:45:03;1.67;;;0.60;;
45842;SDS011;31563;51.744;8.252;2024-02-14T08:47:32;2.08;;;0.82;;
45842;SDS011;31563;51.744;8.252;2024-02-14T08:50:00;1.30;;;0.60;;
45842;SDS011;31563;51.744;8.252;2024-02-14T08:52:29;1.38;;;0.70;;
45842;SDS011;31563;51.744;8.252;2024-02-14T08:55:00;1.47;;;0.90;;
45842;SDS011;31563;51.744;8.252;2024-02-14T08:57:29;0.80;;;0.60;;
45842;SDS011;31563;51.744;8.252;2024-02-14T08:59:57;1.00;;;0.60;;
45842;SDS011;31563;51.744;8.252;2024-02-14T09:02:27;1.33;;;0.60;;
45842;SDS011;31563;51.744;8.252;2024-02-14T09:04:55;2.67;;;0.68;;
45842;SDS011;31563;51.744;8.252;2024-02-14T09:07:23;1.30;;;0.60;;
45842;SDS011;31563;51.744;8.252;2024-02-14T09:09:51;1.75;;;0.47;;
45842;SDS011;31563;51.744;8.252;2024-02-14T09:12:21;1.38;;;1.00;;
45842;SDS011;31563;51.744;8.252;2024-02-14T09:17:18;1.20;;;1.10;;
45842;SDS011;31563;51.744;8.252;2024-02-14T09:19:46;2.42;;;1.30;;
45842;SDS011;31563;51.744;8.252;2024-02-14T09:22:14;1.92;;;1.10;;
45842;SDS011;31563;51.744;8.252;2024-02-14T09:24:47;1.13;;;0.90;;
45842;SDS011;31563;51.744;8.252;2024-02-14T09:27:16;2.50;;;0.80;;
45842;SDS011;31563;51.744;8.252;2024-02-14T09:29:46;1.73;;;0.70;;
45842;SDS011;31563;51.744;8.252;2024-02-14T09:32:14;2.05;;;0.95;;
45842;SDS011;31563;51.744;8.252;2024-02-14T09:34:42;2.55;;;0.80;;
45842;SDS011;31563;51.744;8.252;2024-02-14T09:37:12;1.70;;;0.75;;
45842;SDS011;31563;51.744;8.252;2024-02-14T09:39:40;0.90;;;0.70;;
45842;SDS011;31563;51.744;8.252;2024-02-14T09:42:11;2.00;;;0.95;;
45842;SDS011;31563;51.744;8.252;2024-02-14T09:44:41;1.90;;;0.70;;
45842;SDS011;31563;51.744;8.252;2024-02-14T09:47:13;1.90;;;0.70;;
45842;SDS011;31563;51.744;8.252;2024-02-14T09:49:42;2.38;;;0.50;;
45842;SDS011;31563;51.744;8.252;2024-02-14T09:52:11;1.15;;;0.70;;
45842;SDS011;31563;51.744;8.252;2024-02-14T09:54:41;2.05;;;0.68;;
45842;SDS011;31563;51.744;8.252;2024-02-14T09:57:11;0.95;;;0.68;;
45842;SDS011;31563;51.744;8.252;2024-02-14T09:59:42;1.90;;;0.93;;
45842;SDS011;31563;51.744;8.252;2024-02-14T10:02:13;1.38;;;0.63;;
45842;SDS011;31563;51.744;8.252;2024-02-14T10:04:42;1.02;;;0.60;;
45842;SDS011;31563;51.744;8.252;2024-02-14T10:07:10;1.58;;;0.60;;
45842;SDS011;31563;51.744;8.252;2024-02-14T10:09:42;1.52;;;0.60;;
45842;SDS011;31563;51.744;8.252;2024-02-14T10:12:11;0.82;;;0.50;;
45842;SDS011;31563;51.744;8.252;2024-02-14T10:14:39;1.50;;;0.63;;
45842;SDS011;31563;51.744;8.252;2024-02-14T10:17:16;1.48;;;0.60;;
45842;SDS011;31563;51.744;8.252;2024-02-14T10:19:56;0.95;;;0.50;;
45842;SDS011;31563;51.744;8.252;2024-02-14T10:22:25;2.20;;;0.60;;
45842;SDS011;31563;51.744;8.252;2024-02-14T10:24:59;1.50;;;0.63;;
45842;SDS011;31563;51.744;8.252;2024-02-14T10:27:27;1.83;;;0.50;;
45842;SDS011;31563;51.744;8.252;2024-02-14T10:29:55;0.77;;;0.50;;
45842;SDS011;31563;51.744;8.252;2024-02-14T10:32:25;1.02;;;0.70;;
45842;SDS011;31563;51.744;8.252;2024-02-14T10:34:55;2.05;;;0.70;;
45842;SDS011;31563;51.744;8.252;2024-02-14T10:37:23;1.60;;;0.38;;
45842;SDS011;31563;51.744;8.252;2024-02-14T10:39:53;1.33;;;0.60;;
45842;SDS011;31563;51.744;8.252;2024-02-14T10:42:24;1.08;;;0.55;;
45842;SDS011;31563;51.744;8.252;2024-02-14T10:44:52;1.63;;;0.60;;
45842;SDS011;31563;51.744;8.252;2024-02-14T10:47:23;1.55;;;0.70;;
45842;SDS011;31563;51.744;8.252;2024-02-14T10:49:57;1.13;;;0.50;;
45842;SDS011;31563;51.744;8.252;2024-02-14T10:52:30;1.67;;;0.43;;
45842;SDS011;31563;51.744;8.252;2024-02-14T10:55:01;0.60;;;0.40;;
45842;SDS011;31563;51.744;8.252;2024-02-14T10:57:31;1.75;;;0.50;;
45842;SDS011;31563;51.744;8.252;2024-02-14T11:00:00;0.90;;;0.50;;
45842;SDS011;31563;51.744;8.252;2024-02-14T11:02:34;0.82;;;0.50;;
45842;SDS011;31563;51.744;8.252;2024-02-14T11:05:03;1.20;;;0.50;;
45842;SDS011;31563;51.744;8.252;2024-02-14T11:10:01;1.50;;;0.70;;
45842;SDS011;31563;51.744;8.252;2024-02-14T11:12:33;1.08;;;0.55;;
45842;SDS011;31563;51.744;8.252;2024-02-14T11:15:08;1.77;;;0.50;;
45842;SDS011;31563;51.744;8.252;2024-02-14T11:17:40;0.70;;;0.40;;
45842;SDS011;31563;51.744;8.252;2024-02-14T11:20:16;1.15;;;0.65;;
45842;SDS011;31563;51.744;8.252;2024-02-14T11:22:54;1.80;;;0.50;;
45842;SDS011;31563;51.744;8.252;2024-02-14T11:25:24;0.65;;;0.40;;
45842;SDS011;31563;51.744;8.252;2024-02-14T11:27:57;0.80;;;0.50;;
45842;SDS011;31563;51.744;8.252;2024-02-14T11:30:26;0.98;;;0.50;;
45842;SDS011;31563;51.744;8.252;2024-02-14T11:33:09;2.13;;;0.55;;
45842;SDS011;31563;51.744;8.252;2024-02-14T11:35:41;0.88;;;0.60;;
45842;SDS011;31563;51.744;8.252;2024-02-14T11:38:09;1.13;;;0.50;;
45842;SDS011;31563;51.744;8.252;2024-02-14T11:40:38;1.15;;;0.57;;
45842;SDS011;31563;51.744;8.252;2024-02-14T11:43:10;2.13;;;0.50;;
45842;SDS011;31563;51.744;8.252;2024-02-14T11:45:40;2.08;;;0.50;;
45842;SDS011;31563;51.744;8.252;2024-02-14T11:48:11;1.53;;;0.40;;
45842;SDS011;31563;51.744;8.252;2024-02-14T11:50:40;1.00;;;0.60;;
45842;SDS011;31563;51.744;8.252;2024-02-14T11:53:09;2.13;;;0.45;;
45842;SDS011;31563;51.744;8.252;2024-02-14T11:55:38;0.95;;;0.40;;
45842;SDS011;31563;51.744;8.252;2024-02-14T11:58:07;0.93;;;0.40;;
45842;SDS011;31563;51.744;8.252;2024-02-14T12:00:37;0.93;;;0.63;;
45842;SDS011;31563;51.744;8.252;2024-02-14T12:03:06;1.77;;;0.60;;
45842;SDS011;31563;51.744;8.252;2024-02-14T12:10:34;0.70;;;0.40;;
45842;SDS011;31563;51.744;8.252;2024-02-14T12:13:08;0.65;;;0.30;;
45842;SDS011;31563;51.744;8.252;2024-02-14T12:15:38;2.08;;;0.43;;
45842;SDS011;31563;51.744;8.252;2024-02-14T12:18:07;2.90;;;0.60;;
45842;SDS011;31563;51.744;8.252;2024-02-14T12:20:38;0.95;;;0.45;;
45842;SDS011;31563;51.744;8.252;2024-02-14T12:23:06;1.90;;;0.60;;
45842;SDS011;31563;51.744;8.252;2024-02-14T12:25:34;1.27;;;0.32;;
45842;SDS011;31563;51.744;8.252;2024-02-14T12:28:03;1.83;;;0.50;;
45842;SDS011;31563;51.744;8.252;2024-02-14T12:30:42;1.90;;;0.40;;
45842;SDS011;31563;51.744;8.252;2024-02-14T12:35:43;0.95;;;0.30;;
45842;SDS011;31563;51.744;8.252;2024-02-14T12:38:13;0.80;;;0.50;;
45842;SDS011;31563;51.744;8.252;2024-02-14T12:40:43;1.20;;;0.40;;
45842;SDS011;31563;51.744;8.252;2024-02-14T12:43:12;1.13;;;0.40;;
45842;SDS011;31563;51.744;8.252;2024-02-14T12:45:42;2.25;;;0.63;;
45842;SDS011;31563;51.744;8.252;2024-02-14T12:48:11;1.58;;;0.40;;
45842;SDS011;31563;51.744;8.252;2024-02-14T12:50:40;1.85;;;0.30;;
45842;SDS011;31563;51.744;8.252;2024-02-14T12:53:15;1.35;;;0.57;;
45842;SDS011;31563;51.744;8.252;2024-02-14T12:55:43;1.02;;;0.40;;
45842;SDS011;31563;51.744;8.252;2024-02-14T12:58:11;0.85;;;0.40;;
45842;SDS011;31563;51.744;8.252;2024-02-14T13:00:40;1.27;;;0.40;;
45842;SDS011;31563;51.744;8.252;2024-02-14T13:03:09;0.95;;;0.40;;
45842;SDS011;31563;51.744;8.252;2024-02-14T13:05:43;0.77;;;0.47;;
45842;SDS011;31563;51.744;8.252;2024-02-14T13:08:11;1.92;;;0.40;;
45842;SDS011;31563;51.744;8.252;2024-02-14T13:10:39;0.70;;;0.40;;
45842;SDS011;31563;51.744;8.252;2024-02-14T13:13:08;0.55;;;0.40;;
45842;SDS011;31563;51.744;8.252;2024-02-14T13:15:36;0.95;;;0.40;;
45842;SDS011;31563;51.744;8.252;2024-02-14T13:18:04;1.20;;;0.40;;
45842;SDS011;31563;51.744;8.252;2024-02-14T13:20:33;0.98;;;0.40;;
45842;SDS011;31563;51.744;8.252;2024-02-14T13:23:04;1.63;;;0.40;;
45842;SDS011;31563;51.744;8.252;2024-02-14T13:25:34;0.57;;;0.30;;
45842;SDS011;31563;51.744;8.252;2024-02-14T13:28:04;0.80;;;0.40;;
45842;SDS011;31563;51.744;8.252;2024-02-14T13:30:32;1.40;;;0.60;;
45842;SDS011;31563;51.744;8.252;2024-02-14T13:33:03;0.88;;;0.50;;
45842;SDS011;31563;51.744;8.252;2024-02-14T13:35:32;1.73;;;0.43;;
45842;SDS011;31563;51.744;8.252;2024-02-14T13:38:06;0.80;;;0.50;;
45842;SDS011;31563;51.744;8.252;2024-02-14T13:40:36;0.88;;;0.40;;
45842;SDS011;31563;51.744;8.252;2024-02-14T13:43:04;0.80;;;0.40;;
45842;SDS011;31563;51.744;8.252;2024-02-14T13:45:39;1.23;;;0.40;;
45842;SDS011;31563;51.744;8.252;2024-02-14T13:48:09;1.67;;;0.60;;
45842;SDS011;31563;51.744;8.252;2024-02-14T13:50:38;2.20;;;0.40;;
45842;SDS011;31563;51.744;8.252;2024-02-14T13:53:09;1.20;;;0.67;;
45842;SDS011;31563;51.744;8.252;2024-02-14T13:55:37;0.57;;;0.45;;
45842;SDS011;31563;51.744;8.252;2024-02-14T13:58:06;1.38;;;0.50;;
45842;SDS011;31563;51.744;8.252;2024-02-14T14:00:41;1.20;;;0.40;;
45842;SDS011;31563;51.744;8.252;2024-02-14T14:03:09;0.57;;;0.50;;
45842;SDS011;31563;51.744;8.252;2024-02-14T14:05:38;3.40;;;0.70;;
45842;SDS011;31563;51.744;8.252;2024-02-14T14:08:06;1.67;;;0.50;;
45842;SDS011;31563;51.744;8.252;2024-02-14T14:13:04;1.02;;;0.60;;
45842;SDS011;31563;51.744;8.252;2024-02-14T14:15:33;0.80;;;0.40;;
45842;SDS011;31563;51.744;8.252;2024-02-14T14:18:01;0.90;;;0.45;;
45842;SDS011;31563;51.744;8.252;2024-02-14T14:20:30;1.35;;;0.63;;
45842;SDS011;31563;51.744;8.252;2024-02-14T14:22:58;1.67;;;0.80;;
45842;SDS011;31563;51.744;8.252;2024-02-14T14:25:27;0.98;;;0.60;;
45842;SDS011;31563;51.744;8.252;2024-02-14T14:27:57;0.73;;;0.50;;
45842;SDS011;31563;51.744;8.252;2024-02-14T14:30:26;1.15;;;0.57;;
45842;SDS011;31563;51.744;8.252;2024-02-14T14:32:54;0.90;;;0.60;;
45842;SDS011;31563;51.744;8.252;2024-02-14T14:35:23;1.38;;;0.60;;
45842;SDS011;31563;51.744;8.252;2024-02-14T14:37:51;1.30;;;0.60;;
45842;SDS011;31563;51.744;8.252;2024-02-14T14:40:20;1.38;;;0.68;;
45842;SDS011;31563;51.744;8.252;2024-02-14T14:42:50;1.23;;;0.57;;
45842;SDS011;31563;51.744;8.252;2024-02-14T14:45:19;3.60;;;0.60;;
45842;SDS011;31563;51.744;8.252;2024-02-14T14:47:47;1.15;;;0.70;;
45842;SDS011;31563;51.744;8.252;2024-02-14T14:50:15;0.75;;;0.50;;
45842;SDS011;31563;51.744;8.252;2024-02-14T14:52:45;1.20;;;0.50;;
45842;SDS011;31563;51.744;8.252;2024-02-14T14:55:13;0.90;;;0.47;;
45842;SDS011;31563;51.744;8.252;2024-02-14T14:57:41;0.68;;;0.40;;
45842;SDS011;31563;51.744;8.252;2024-02-14T15:00:11;3.38;;;0.40;;
45842;SDS011;31563;51.744;8.252;2024-02-14T15:02:40;0.85;;;0.40;;
45842;SDS011;31563;51.744;8.252;2024-02-14T15:05:09;1.17;;;0.50;;
45842;SDS011;31563;51.744;8.252;2024-02-14T15:07:39;1.20;;;0.40;;
45842;SDS011;31563;51.744;8.252;2024-02-14T15:10:07;1.63;;;0.40;;
45842;SDS011;31563;51.744;8.252;2024-02-14T15:12:36;2.42;;;0.57;;
45842;SDS011;31563;51.744;8.252;2024-02-14T15:15:04;0.52;;;0.30;;
45842;SDS011;31563;51.744;8.252;2024-02-14T15:17:35;0.70;;;0.40;;
45842;SDS011;31563;51.744;8.252;2024-02-14T15:20:04;0.55;;;0.40;;
45842;SDS011;31563;51.744;8.252;2024-02-14T15:22:33;4.15;;;0.60;;
45842;SDS011;31563;51.744;8.252;2024-02-14T15:25:01;0.70;;;0.60;;
45842;SDS011;31563;51.744;8.252;2024-02-14T15:27:30;1.23;;;0.32;;